createdAt,value
2023-03-11T00:00:37.867Z,73.26
2023-03-11T00:03:06.839Z,70.54
2023-03-11T00:05:39.995Z,69.95
2023-03-11T00:08:09.000Z,71.49
2023-03-11T00:10:42.214Z,69.40
2023-03-11T00:13:12.316Z,71.09
2023-03-11T00:15:40.055Z,72.14
2023-03-11T00:18:07.584Z,70.43
2023-03-11T00:20:37.458Z,72.67
2023-03-11T00:23:06.209Z,73.06
2023-03-11T00:25:35.490Z,71.33
2023-03-11T00:28:05.286Z,73.37
2023-03-11T00:30:32.523Z,67.49
2023-03-11T00:33:00.445Z,69.58
2023-03-11T00:35:31.382Z,66.98
2023-03-11T00:38:01.324Z,67.73
2023-03-11T00:40:31.391Z,69.34
2023-03-11T00:42:59.198Z,67.43
2023-03-11T00:45:27.999Z,67.14
2023-03-11T00:47:55.636Z,70.53
2023-03-11T00:50:26.366Z,68.88
2023-03-11T00:52:54.460Z,67.95
2023-03-11T00:55:25.058Z,70.78
2023-03-11T00:57:55.676Z,70.43
2023-03-11T01:00:25.945Z,71.79
2023-03-11T01:02:54.759Z,73.87
2023-03-11T01:05:28.476Z,70.39
2023-03-11T01:07:55.927Z,72.91
2023-03-11T01:10:23.180Z,73.49
2023-03-11T01:12:52.142Z,74.92
2023-03-11T01:15:25.802Z,72.43
2023-03-11T01:17:53.216Z,72.92
2023-03-11T01:20:22.688Z,72.13
2023-03-11T01:22:49.883Z,70.42
2023-03-11T01:25:19.452Z,71.96
2023-03-11T01:27:47.046Z,76.13
2023-03-11T01:30:17.545Z,70.14
2023-03-11T01:32:46.076Z,72.60
2023-03-11T01:35:19.462Z,76.99
2023-03-11T01:37:47.519Z,73.50
2023-03-11T01:40:19.856Z,69.23
2023-03-11T01:42:46.956Z,71.97
2023-03-11T01:45:38.905Z,69.74
2023-03-11T01:48:09.796Z,71.15
2023-03-11T01:50:41.896Z,73.62
2023-03-11T01:53:10.345Z,69.21
2023-03-11T01:55:37.908Z,68.21
2023-03-11T01:58:11.254Z,68.55
2023-03-11T02:00:39.078Z,71.52
2023-03-11T02:03:24.478Z,73.01
2023-03-11T02:05:56.264Z,73.85
2023-03-11T02:08:24.164Z,72.85
2023-03-11T02:10:53.654Z,70.54
2023-03-11T02:13:21.212Z,77.67
2023-03-11T02:15:48.664Z,78.74
2023-03-11T02:18:20.732Z,74.17
2023-03-11T02:21:05.140Z,77.23
2023-03-11T02:24:05.101Z,72.86
2023-03-11T02:27:02.416Z,72.96
2023-03-11T02:29:30.786Z,76.92
2023-03-11T02:32:00.823Z,76.94
2023-03-11T02:34:34.591Z,71.57
2023-03-11T02:37:06.864Z,73.00
2023-03-11T02:39:43.723Z,73.78
2023-03-11T02:42:23.651Z,71.84
2023-03-11T02:45:05.053Z,69.39
2023-03-11T02:47:35.251Z,70.93
2023-03-11T02:50:02.801Z,72.51
2023-03-11T02:52:34.669Z,70.41
2023-03-11T02:55:02.425Z,71.68
2023-03-11T02:57:29.928Z,73.20
2023-03-11T02:59:57.280Z,70.30
2023-03-11T03:02:24.644Z,72.25
2023-03-11T03:04:52.797Z,71.44
2023-03-11T03:07:20.262Z,74.04
2023-03-11T03:09:47.394Z,72.37
2023-03-11T03:12:14.608Z,72.37
2023-03-11T03:14:42.206Z,68.25
2023-03-11T03:17:10.869Z,70.75
2023-03-11T03:19:37.985Z,71.05
2023-03-11T03:22:05.939Z,68.94
2023-03-11T03:24:33.346Z,70.28
2023-03-11T03:27:00.685Z,71.56
2023-03-11T03:29:28.111Z,70.03
2023-03-11T03:31:55.416Z,70.65
2023-03-11T03:34:22.767Z,69.13
2023-03-11T03:36:50.567Z,70.71
2023-03-11T03:39:20.215Z,72.57
2023-03-11T03:41:50.956Z,70.27
2023-03-11T03:44:18.517Z,72.38
2023-03-11T03:46:47.433Z,74.19
2023-03-11T03:49:14.719Z,72.57
2023-03-11T03:51:42.288Z,70.16
2023-03-11T03:54:29.852Z,69.99
2023-03-11T03:56:58.488Z,72.99
2023-03-11T03:59:25.690Z,74.16
2023-03-11T04:01:57.404Z,74.88
2023-03-11T04:04:26.861Z,73.11
2023-03-11T04:06:54.629Z,76.93
2023-03-11T04:09:21.921Z,74.74
2023-03-11T04:11:49.382Z,73.99
2023-03-11T04:14:18.262Z,71.94
2023-03-11T04:16:53.319Z,71.40
2023-03-11T04:19:20.703Z,73.89
2023-03-11T04:21:48.069Z,78.02
2023-03-11T04:24:15.371Z,74.86
2023-03-11T04:26:43.234Z,79.59
2023-03-11T04:29:14.904Z,74.71
2023-03-11T04:31:48.040Z,74.14
2023-03-11T04:34:15.287Z,77.13
2023-03-11T04:36:42.951Z,76.56
2023-03-11T04:39:12.106Z,76.19
2023-03-11T04:41:43.236Z,73.75
2023-03-11T04:44:14.420Z,77.41
2023-03-11T04:46:42.245Z,78.31
2023-03-11T04:49:10.621Z,77.16
2023-03-11T04:51:38.245Z,74.70
2023-03-11T04:54:07.106Z,78.74
2023-03-11T04:56:34.438Z,78.57
2023-03-11T04:59:01.715Z,79.87
2023-03-11T05:01:30.944Z,78.74
2023-03-11T05:04:01.736Z,79.26
2023-03-11T05:06:29.421Z,82.04
2023-03-11T05:08:56.610Z,76.76
2023-03-11T05:11:24.135Z,80.39
2023-03-11T05:13:52.056Z,78.00
2023-03-11T05:16:20.396Z,77.93
2023-03-11T05:18:48.185Z,78.52
2023-03-11T05:21:16.438Z,81.86
2023-03-11T05:23:45.713Z,78.23
2023-03-11T05:26:15.075Z,75.81
2023-03-11T05:28:44.495Z,77.51
2023-03-11T05:31:12.182Z,77.26
2023-03-11T05:33:40.235Z,78.98
2023-03-11T05:36:11.317Z,77.28
2023-03-11T05:38:42.537Z,77.96
2023-03-11T05:41:10.557Z,74.38
2023-03-11T05:43:38.812Z,75.26
2023-03-11T05:46:06.003Z,77.68
2023-03-11T05:48:33.663Z,73.57
2023-03-11T05:51:00.855Z,73.91
2023-03-11T05:53:28.149Z,73.77
2023-03-11T05:55:59.659Z,73.17
2023-03-11T05:58:30.055Z,70.00
2023-03-11T06:00:57.479Z,69.47
2023-03-11T06:03:27.911Z,72.19
2023-03-11T06:05:55.915Z,74.94
2023-03-11T06:08:23.377Z,73.06
2023-03-11T06:10:50.686Z,72.77
2023-03-11T06:13:20.646Z,72.36
2023-03-11T06:15:51.042Z,72.41
2023-03-11T06:18:19.859Z,75.36
2023-03-11T06:20:47.148Z,72.09
2023-03-11T06:23:14.725Z,70.05
2023-03-11T06:25:42.130Z,74.68
2023-03-11T06:28:09.687Z,69.28
2023-03-11T06:30:37.018Z,70.51
2023-03-11T06:33:15.518Z,68.25
2023-03-11T06:35:43.499Z,69.52
2023-03-11T06:38:10.736Z,69.50
2023-03-11T06:40:39.318Z,70.95
2023-03-11T06:43:06.630Z,73.83
2023-03-11T06:45:38.027Z,69.26
2023-03-11T06:48:05.857Z,70.33
2023-03-11T06:50:34.185Z,71.31
2023-03-11T06:53:07.097Z,65.53
2023-03-11T06:55:36.225Z,65.74
2023-03-11T06:58:04.614Z,65.32
2023-03-11T07:00:33.404Z,68.23
2023-03-11T07:03:02.664Z,65.59
2023-03-11T07:05:30.657Z,65.00
2023-03-11T07:08:02.871Z,66.56
2023-03-11T07:10:30.145Z,64.99
2023-03-11T07:12:57.556Z,64.77
2023-03-11T07:15:24.955Z,61.74
2023-03-11T07:17:52.437Z,60.32
2023-03-11T07:20:20.299Z,61.84
2023-03-11T07:22:47.562Z,65.13
2023-03-11T07:25:15.159Z,58.53
2023-03-11T07:27:42.419Z,58.20
2023-03-11T07:30:10.158Z,58.45
2023-03-11T07:32:37.360Z,55.16
2023-03-11T07:35:04.880Z,54.81
2023-03-11T07:37:32.074Z,55.17
2023-03-11T07:39:59.218Z,53.57
2023-03-11T07:42:26.427Z,49.55
2023-03-11T07:44:54.951Z,46.42
2023-03-11T07:47:22.162Z,43.29
2023-03-11T07:49:49.446Z,42.63
2023-03-11T07:52:16.604Z,39.31
2023-03-11T07:54:45.777Z,35.24
2023-03-11T07:57:17.304Z,34.07
2023-03-11T07:59:44.460Z,33.55
2023-03-11T08:02:12.077Z,32.28
2023-03-11T08:04:39.293Z,31.26
2023-03-11T08:07:06.466Z,33.93
2023-03-11T08:09:35.487Z,28.26
2023-03-11T08:12:02.685Z,27.97
2023-03-11T08:14:29.914Z,25.88
2023-03-11T08:17:01.117Z,25.12
2023-03-11T08:19:28.258Z,25.60
2023-03-11T08:21:55.474Z,24.63
2023-03-11T08:24:22.814Z,26.69
2023-03-11T08:26:49.997Z,26.87
2023-03-11T08:29:17.246Z,27.79
2023-03-11T08:31:44.454Z,28.61
2023-03-11T08:34:12.441Z,28.15
2023-03-11T08:36:40.009Z,31.51
2023-03-11T08:39:07.488Z,30.93
2023-03-11T08:41:34.753Z,30.31
2023-03-11T08:44:02.056Z,31.17
2023-03-11T08:46:35.646Z,31.03
2023-03-11T08:49:03.489Z,30.42
2023-03-11T08:51:32.878Z,29.21
2023-03-11T08:54:01.366Z,30.40
2023-03-11T08:56:29.523Z,27.87
2023-03-11T08:58:57.027Z,26.55
2023-03-11T09:01:24.222Z,25.20
2023-03-11T09:03:51.929Z,24.86
2023-03-11T09:06:20.015Z,25.39
2023-03-11T09:08:48.795Z,26.40
2023-03-11T09:11:17.821Z,26.34
2023-03-11T09:13:45.657Z,25.95
2023-03-11T09:16:18.177Z,24.01
2023-03-11T09:18:45.372Z,23.05
2023-03-11T09:21:13.316Z,23.28
2023-03-11T09:23:44.002Z,23.08
2023-03-11T09:26:12.237Z,23.11
2023-03-11T09:28:40.355Z,23.94
2023-03-11T09:31:07.846Z,24.98
2023-03-11T09:33:42.600Z,26.41
2023-03-11T09:36:15.062Z,26.92
2023-03-11T09:38:42.984Z,28.29
2023-03-11T09:41:10.060Z,29.85
2023-03-11T09:43:52.378Z,28.35
2023-03-11T09:46:29.910Z,28.36
2023-03-11T09:49:23.230Z,29.59
2023-03-11T09:52:11.197Z,27.53
2023-03-11T09:54:43.132Z,28.78
2023-03-11T09:57:18.917Z,28.87
2023-03-11T09:59:48.497Z,28.08
2023-03-11T10:02:19.692Z,27.48
2023-03-11T10:04:54.098Z,29.24
2023-03-11T10:07:28.378Z,29.15
2023-03-11T10:09:58.349Z,31.95
2023-03-11T10:12:35.450Z,29.48
2023-03-11T10:15:09.956Z,29.23
2023-03-11T10:17:52.275Z,28.55
2023-03-11T10:20:26.536Z,29.92
2023-03-11T10:23:35.507Z,29.20
2023-03-11T10:26:31.714Z,33.61
2023-03-11T10:29:17.112Z,30.48
2023-03-11T10:32:00.985Z,29.39
2023-03-11T10:34:57.598Z,30.97
2023-03-11T10:37:46.212Z,32.54
2023-03-11T10:40:26.729Z,33.62
2023-03-11T10:42:57.782Z,32.73
2023-03-11T10:45:26.297Z,35.26
2023-03-11T10:47:53.499Z,34.99
2023-03-11T10:50:21.029Z,34.83
2023-03-11T10:53:19.385Z,35.64
2023-03-11T10:55:53.058Z,34.31
2023-03-11T10:58:27.324Z,36.24
2023-03-11T11:01:15.367Z,35.65
2023-03-11T11:03:45.954Z,38.15
2023-03-11T11:06:35.051Z,36.74
2023-03-11T11:09:31.328Z,36.20
2023-03-11T11:12:16.179Z,36.26
2023-03-11T11:14:44.275Z,37.40
2023-03-11T11:17:28.729Z,38.27
2023-03-11T11:19:58.433Z,39.28
2023-03-11T11:22:26.151Z,38.53
2023-03-11T11:24:56.807Z,38.40
2023-03-11T11:27:26.650Z,39.15
2023-03-11T11:30:23.642Z,39.41
2023-03-11T11:32:53.981Z,39.03
2023-03-11T11:35:25.459Z,41.43
2023-03-11T11:37:56.020Z,39.17
2023-03-11T11:40:31.135Z,41.70
2023-03-11T11:43:05.917Z,38.46
2023-03-11T11:45:36.119Z,39.42
2023-03-11T11:48:38.026Z,39.10
2023-03-11T11:51:18.449Z,39.71
2023-03-11T11:54:17.765Z,39.25
2023-03-11T11:56:46.170Z,40.18
2023-03-11T11:59:23.629Z,41.21
2023-03-11T12:01:58.261Z,40.68
2023-03-11T12:04:34.144Z,42.14
2023-03-11T12:07:06.985Z,42.66
2023-03-11T12:09:55.935Z,42.70
2023-03-11T12:12:46.036Z,42.43
2023-03-11T12:15:21.805Z,40.88
2023-03-11T12:17:53.520Z,40.84
2023-03-11T12:20:33.019Z,41.71
2023-03-11T12:23:15.888Z,40.55
2023-03-11T12:25:55.371Z,42.95
2023-03-11T12:28:38.158Z,45.95
2023-03-11T12:31:08.012Z,42.78
2023-03-11T12:33:37.949Z,43.82
2023-03-11T12:36:07.521Z,44.30
2023-03-11T12:38:40.357Z,42.98
2023-03-11T12:41:29.579Z,43.64
2023-03-11T12:44:04.080Z,44.79
2023-03-11T12:46:59.112Z,45.46
2023-03-11T12:49:41.590Z,42.31
2023-03-11T12:52:11.795Z,42.89
2023-03-11T12:54:40.970Z,43.86
2023-03-11T12:57:19.591Z,43.46
2023-03-11T13:00:12.681Z,43.04
2023-03-11T13:02:42.758Z,44.42
2023-03-11T13:05:51.103Z,45.47
2023-03-11T13:08:23.028Z,47.84
2023-03-11T13:10:52.654Z,46.82
2023-03-11T13:13:25.656Z,48.79
2023-03-11T13:15:53.706Z,47.92
2023-03-11T13:18:31.024Z,48.66
2023-03-11T13:21:00.221Z,49.60
2023-03-11T13:23:36.606Z,48.87
2023-03-11T13:26:21.726Z,48.98
2023-03-11T13:29:30.205Z,49.30
2023-03-11T13:32:07.306Z,47.77
2023-03-11T13:34:43.500Z,49.78
2023-03-11T13:37:35.493Z,49.47
2023-03-11T13:40:38.777Z,49.49
2023-03-11T13:43:12.644Z,50.04
2023-03-11T13:45:40.218Z,51.31
2023-03-11T13:48:31.467Z,49.74
2023-03-11T13:51:13.657Z,50.23
2023-03-11T13:54:02.830Z,51.28
2023-03-11T13:56:34.264Z,49.75
2023-03-11T13:59:25.145Z,51.15
2023-03-11T14:02:00.644Z,50.85
2023-03-11T14:04:31.839Z,49.73
2023-03-11T14:06:59.687Z,49.46
2023-03-11T14:09:28.614Z,49.03
2023-03-11T14:12:05.247Z,51.34
2023-03-11T14:14:44.214Z,49.77
2023-03-11T14:17:17.242Z,49.84
2023-03-11T14:20:02.170Z,49.43
2023-03-11T14:22:29.476Z,48.90
2023-03-11T14:24:59.027Z,49.92
2023-03-11T14:27:26.431Z,50.82
2023-03-11T14:29:53.679Z,49.85
2023-03-11T14:32:35.075Z,50.79
2023-03-11T14:35:02.382Z,51.07
2023-03-11T14:37:35.708Z,53.32
2023-03-11T14:40:03.789Z,51.52
2023-03-11T14:42:41.067Z,50.44
2023-03-11T14:45:15.873Z,50.30
2023-03-11T14:47:59.681Z,50.70
2023-03-11T14:50:34.064Z,52.22
2023-03-11T14:53:04.865Z,52.04
2023-03-11T14:55:58.523Z,53.21
2023-03-11T14:58:37.421Z,51.83
2023-03-11T15:01:11.673Z,51.71
2023-03-11T15:03:48.615Z,54.36
2023-03-11T15:06:34.588Z,52.15
2023-03-11T15:09:07.978Z,54.22
2023-03-11T15:11:53.205Z,51.79
2023-03-11T15:14:22.498Z,55.40
2023-03-11T15:16:50.623Z,53.57
2023-03-11T15:19:29.748Z,54.84
2023-03-11T15:22:25.756Z,54.53
2023-03-11T15:24:59.188Z,57.01
2023-03-11T15:27:38.191Z,54.86
2023-03-11T15:30:20.476Z,56.62
2023-03-11T15:32:48.946Z,55.17
2023-03-11T15:35:31.470Z,53.05
2023-03-11T15:38:34.119Z,54.96
2023-03-11T15:41:02.931Z,54.53
2023-03-11T15:43:34.108Z,53.38
2023-03-11T15:46:03.990Z,54.76
2023-03-11T15:48:31.534Z,55.59
2023-03-11T15:51:02.222Z,55.81
2023-03-11T15:53:30.927Z,55.12
2023-03-11T15:56:07.974Z,55.16
2023-03-11T15:58:38.065Z,55.18
2023-03-11T16:01:05.459Z,56.45
2023-03-11T16:03:32.695Z,56.49
2023-03-11T16:05:59.917Z,56.94
2023-03-11T16:08:27.234Z,57.45
2023-03-11T16:10:54.604Z,57.57
2023-03-11T16:13:21.734Z,55.75
2023-03-11T16:15:49.410Z,56.27
2023-03-11T16:18:16.738Z,56.16
2023-03-11T16:20:50.163Z,56.63
2023-03-11T16:23:36.159Z,55.93
2023-03-11T16:26:11.912Z,56.03
2023-03-11T16:28:39.303Z,55.24
2023-03-11T16:31:08.917Z,56.19
2023-03-11T16:33:37.179Z,56.32
2023-03-11T16:36:05.695Z,56.13
2023-03-11T16:38:45.672Z,57.22
2023-03-11T16:41:12.959Z,56.03
2023-03-11T16:43:40.071Z,55.51
2023-03-11T16:46:07.259Z,55.03
2023-03-11T16:48:34.604Z,54.07
2023-03-11T16:51:02.259Z,55.42
2023-03-11T16:53:30.046Z,57.10
2023-03-11T16:55:57.633Z,56.49
2023-03-11T16:58:24.758Z,57.81
2023-03-11T17:00:52.346Z,58.16
2023-03-11T17:03:21.819Z,56.58
2023-03-11T17:05:49.845Z,58.43
2023-03-11T17:08:18.559Z,56.50
2023-03-11T17:10:46.908Z,57.30
2023-03-11T17:13:17.092Z,56.95
2023-03-11T17:15:46.094Z,57.11
2023-03-11T17:18:13.906Z,56.01
2023-03-11T17:20:43.762Z,56.15
2023-03-11T17:23:11.099Z,57.10
2023-03-11T17:25:42.166Z,56.82
2023-03-11T17:28:09.953Z,57.55
2023-03-11T17:30:41.765Z,57.74
2023-03-11T17:33:09.044Z,57.13
2023-03-11T17:35:36.200Z,56.47
2023-03-11T17:38:03.665Z,56.10
2023-03-11T17:40:32.046Z,57.13
2023-03-11T17:42:59.476Z,57.76
2023-03-11T17:45:26.686Z,58.18
2023-03-11T17:47:54.010Z,57.40
2023-03-11T17:50:21.242Z,58.46
2023-03-11T17:52:48.685Z,57.57
2023-03-11T17:55:15.846Z,57.70
2023-03-11T17:57:45.680Z,59.35
2023-03-11T18:00:15.165Z,59.82
2023-03-11T18:02:43.095Z,58.81
2023-03-11T18:05:10.528Z,60.23
2023-03-11T18:07:41.427Z,60.08
2023-03-11T18:10:09.850Z,60.78
2023-03-11T18:12:43.542Z,60.74
2023-03-11T18:15:16.574Z,61.68
2023-03-11T18:17:44.021Z,58.20
2023-03-11T18:20:13.216Z,60.19
2023-03-11T18:22:46.208Z,58.69
2023-03-11T18:25:14.117Z,59.42
2023-03-11T18:27:41.355Z,58.49
2023-03-11T18:30:11.545Z,58.76
2023-03-11T18:32:39.507Z,59.46
2023-03-11T18:35:07.238Z,59.46
2023-03-11T18:37:34.519Z,59.39
2023-03-11T18:40:01.888Z,58.99
2023-03-11T18:42:29.157Z,58.83
2023-03-11T18:44:56.283Z,61.13
2023-03-11T18:47:23.498Z,62.06
2023-03-11T18:49:51.062Z,60.93
2023-03-11T18:52:18.228Z,62.71
2023-03-11T18:54:45.518Z,62.43
2023-03-11T18:57:12.842Z,63.76
2023-03-11T18:59:39.956Z,62.91
2023-03-11T19:02:07.215Z,63.63
2023-03-11T19:04:34.387Z,64.72
2023-03-11T19:07:01.614Z,64.62
2023-03-11T19:09:28.868Z,64.42
2023-03-11T19:11:56.069Z,64.28
2023-03-11T19:14:24.482Z,66.78
2023-03-11T19:16:51.769Z,66.59
2023-03-11T19:19:19.599Z,65.97
2023-03-11T19:21:48.111Z,66.93
2023-03-11T19:24:15.192Z,66.93
2023-03-11T19:26:45.844Z,63.45
2023-03-11T19:29:14.829Z,65.25
2023-03-11T19:31:44.141Z,63.98
2023-03-11T19:34:11.793Z,63.47
2023-03-11T19:36:39.834Z,66.54
2023-03-11T19:39:07.275Z,65.17
2023-03-11T19:41:35.066Z,66.10
2023-03-11T19:44:04.637Z,64.41
2023-03-11T19:46:35.040Z,65.53
2023-03-11T19:49:03.392Z,65.16
2023-03-11T19:51:46.564Z,64.03
2023-03-11T19:54:16.655Z,65.26
2023-03-11T19:56:44.022Z,66.40
2023-03-11T19:59:11.218Z,65.76
2023-03-11T20:01:38.550Z,65.14
2023-03-11T20:04:06.220Z,65.76
2023-03-11T20:06:33.789Z,66.21
2023-03-11T20:09:01.083Z,66.75
2023-03-11T20:11:28.331Z,67.67
2023-03-11T20:13:56.874Z,65.92
2023-03-11T20:16:24.202Z,67.51
2023-03-11T20:18:51.833Z,67.95
2023-03-11T20:21:19.453Z,67.13
2023-03-11T20:23:46.716Z,68.92
2023-03-11T20:26:16.537Z,68.78
2023-03-11T20:28:44.276Z,68.46
2023-03-11T20:31:21.200Z,69.25
2023-03-11T20:33:50.332Z,68.14
2023-03-11T20:36:21.317Z,67.72
2023-03-11T20:38:50.632Z,68.96
2023-03-11T20:41:18.587Z,67.81
2023-03-11T20:43:46.542Z,70.16
2023-03-11T20:46:13.975Z,69.29
2023-03-11T20:48:41.253Z,69.74
2023-03-11T20:51:13.436Z,69.31
2023-03-11T20:53:40.890Z,69.83
2023-03-11T20:56:20.049Z,69.21
2023-03-11T20:58:49.412Z,70.06
2023-03-11T21:01:26.698Z,72.21
2023-03-11T21:03:56.270Z,72.78
2023-03-11T21:06:24.789Z,71.19
2023-03-11T21:08:55.468Z,72.96
2023-03-11T21:11:24.468Z,72.44
2023-03-11T21:13:52.297Z,72.90
2023-03-11T21:16:20.227Z,73.29
2023-03-11T21:18:49.473Z,73.25
2023-03-11T21:21:18.053Z,70.67
2023-03-11T21:23:46.943Z,74.13
2023-03-11T21:26:16.338Z,73.67
2023-03-11T21:28:47.145Z,74.54
2023-03-11T21:31:20.131Z,73.08
2023-03-11T21:33:48.219Z,76.30
2023-03-11T21:36:18.013Z,75.57
2023-03-11T21:38:46.774Z,75.62
2023-03-11T21:41:18.478Z,76.76
2023-03-11T21:43:46.934Z,76.97
2023-03-11T21:46:17.874Z,76.08
2023-03-11T21:48:46.115Z,76.57
2023-03-11T21:51:14.523Z,76.18
2023-03-11T21:53:42.144Z,74.20
2023-03-11T21:56:10.298Z,74.13
2023-03-11T21:58:37.657Z,73.85
2023-03-11T22:01:05.404Z,72.97
2023-03-11T22:03:36.185Z,73.13
2023-03-11T22:06:09.894Z,72.58
2023-03-11T22:08:37.510Z,70.08
2023-03-11T22:11:08.288Z,70.57
2023-03-11T22:13:35.629Z,67.00
2023-03-11T22:16:05.163Z,69.69
2023-03-11T22:18:32.692Z,73.37
2023-03-11T22:21:00.207Z,72.85
2023-03-11T22:23:28.167Z,71.08
2023-03-11T22:25:55.526Z,73.93
2023-03-11T22:28:23.165Z,74.30
2023-03-11T22:30:50.372Z,73.88
2023-03-11T22:33:17.934Z,72.85
2023-03-11T22:35:56.760Z,73.61
2023-03-11T22:38:24.365Z,73.79
2023-03-11T22:40:52.315Z,74.37
2023-03-11T22:43:19.847Z,71.86
2023-03-11T22:45:47.126Z,72.02
2023-03-11T22:48:14.438Z,71.27
2023-03-11T22:50:45.014Z,71.77
2023-03-11T22:53:13.487Z,70.44
2023-03-11T22:55:42.369Z,72.12
2023-03-11T22:58:10.404Z,71.37
2023-03-11T23:00:38.036Z,70.45
2023-03-11T23:03:05.801Z,70.55
2023-03-11T23:05:40.922Z,70.72
2023-03-11T23:08:10.841Z,69.10
2023-03-11T23:10:41.288Z,70.74
2023-03-11T23:13:09.044Z,70.12
2023-03-11T23:15:36.916Z,73.42
2023-03-11T23:18:04.399Z,71.02
2023-03-11T23:20:36.208Z,74.29
2023-03-11T23:23:04.991Z,72.85
2023-03-11T23:25:33.315Z,75.06
2023-03-11T23:28:02.728Z,74.36
2023-03-11T23:30:30.444Z,73.66
2023-03-11T23:32:58.112Z,76.79
2023-03-11T23:35:25.504Z,76.16
2023-03-11T23:37:52.919Z,76.92
2023-03-11T23:40:20.159Z,77.01
2023-03-11T23:42:47.426Z,76.52
2023-03-11T23:45:14.613Z,75.89
2023-03-11T23:47:41.792Z,76.17
2023-03-11T23:50:09.520Z,76.92
2023-03-11T23:52:36.821Z,77.02
2023-03-11T23:55:04.326Z,76.07
2023-03-11T23:57:31.532Z,75.90
2023-03-11T23:59:58.740Z,75.22
